Time;durP1;ratioP1;P1;durP2;ratioP2;P2;SDS_P1;SDS_P2;PMS_P1;PMS_P2;Temp;Humidity;BMP_temperature;BMP_pressure;BME280_temperature;BME280_humidity;BME280_pressure;Samples;Min_cycle;Max_cycle;Signal;HPM_P1;HPM_P2
2023/07/31 00:04:47;;;;;;;3.40;1.90;;;;;;;21.27;60.64;100896.94;10297159;28;97845;-80
2023/07/31 00:09:50;;;;;;;4.07;1.73;;;;;;;21.30;60.27;100891.34;10297069;28;97652;-80
2023/07/31 00:14:55;;;;;;;3.35;1.90;;;;;;;21.30;60.62;100887.78;10296021;28;96912;-80
2023/07/31 00:19:59;;;;;;;4.20;2.15;;;;;;;21.05;61.10;100887.84;10295896;28;96708;-80
2023/07/31 00:25:02;;;;;;;3.10;2.08;;;;;;;21.15;61.01;100894.25;10296768;28;97763;-80
2023/07/31 00:30:08;;;;;;;3.45;1.98;;;;;;;21.28;60.70;100890.59;10296460;28;97033;-80
2023/07/31 00:35:11;;;;;;;4.15;2.38;;;;;;;21.20;60.63;100881.41;10295904;28;96956;-79
2023/07/31 00:40:14;;;;;;;3.75;2.10;;;;;;;20.98;61.22;100875.88;10296847;28;96743;-80
2023/07/31 00:45:22;;;;;;;3.05;2.08;;;;;;;21.05;61.09;100869.97;10302640;28;96674;-80
2023/07/31 00:50:26;;;;;;;3.47;1.95;;;;;;;20.64;62.27;100860.53;10300695;28;96800;-80
2023/07/31 00:55:30;;;;;;;4.33;2.40;;;;;;;20.86;61.60;100858.06;10302029;28;96809;-80
2023/07/31 01:00:35;;;;;;;2.50;1.58;;;;;;;20.86;61.65;100853.53;10300108;28;96956;-80
2023/07/31 01:05:50;;;;;;;4.20;2.22;;;;;;;20.83;61.72;100852.91;10300562;28;96800;-80
2023/07/31 01:11:00;;;;;;;4.35;2.63;;;;;;;21.03;60.88;100847.84;10299269;28;98014;-80
2023/07/31 01:16:05;;;;;;;5.85;2.30;;;;;;;21.01;61.47;100838.19;10333008;28;97756;-80
2023/07/31 01:21:28;;;;;;;3.20;2.05;;;;;;;20.78;61.96;100839.00;10341157;28;96584;-80
2023/07/31 01:26:37;;;;;;;3.42;1.92;;;;;;;20.59;62.27;100839.47;10340985;28;97109;-80
2023/07/31 01:31:43;;;;;;;3.47;2.10;;;;;;;20.68;62.05;100835.28;10340126;28;97381;-80
2023/07/31 01:36:46;;;;;;;3.30;1.90;;;;;;;20.53;62.37;100837.25;10340231;28;96710;-80
2023/07/31 01:41:50;;;;;;;3.92;2.38;;;;;;;20.52;62.67;100837.34;10340048;28;97297;-80
2023/07/31 01:46:54;;;;;;;3.47;1.77;;;;;;;20.58;62.48;100832.44;10339870;28;96693;-80
2023/07/31 01:51:57;;;;;;;4.78;2.20;;;;;;;20.28;62.88;100835.44;10339468;28;96904;-80
2023/07/31 01:57:02;;;;;;;3.20;2.00;;;;;;;20.13;63.50;100835.66;10269491;28;96688;-80
2023/07/31 02:02:06;;;;;;;3.25;1.75;;;;;;;20.02;63.84;100841.72;10256608;28;97637;-80
2023/07/31 02:07:09;;;;;;;5.70;2.47;;;;;;;20.04;63.71;100837.13;10326674;28;97354;-80
2023/07/31 02:12:14;;;;;;;5.25;2.55;;;;;;;20.33;62.90;100844.00;10324746;28;96673;-80
2023/07/31 02:17:17;;;;;;;3.85;2.47;;;;;;;20.27;62.91;100846.22;10297515;28;96737;-80
2023/07/31 02:22:21;;;;;;;4.00;2.15;;;;;;;20.30;63.09;100846.91;10298141;28;96673;-80
2023/07/31 02:27:27;;;;;;;3.47;2.10;;;;;;;19.94;64.32;100844.06;10297797;28;97556;-80
2023/07/31 02:32:30;;;;;;;5.10;2.35;;;;;;;20.41;62.77;100839.94;10297716;28;97793;-80
2023/07/31 02:37:35;;;;;;;2.75;2.03;;;;;;;20.69;62.05;100840.53;10298353;28;96746;-81
2023/07/31 02:42:39;;;;;;;3.80;2.15;;;;;;;20.08;63.72;100840.47;10296862;28;96817;-80
2023/07/31 02:47:43;;;;;;;3.42;2.30;;;;;;;20.49;63.07;100835.75;10296722;28;96680;-80
2023/07/31 02:52:48;;;;;;;4.95;2.17;;;;;;;20.15;63.71;100823.03;10295894;28;96728;-80
2023/07/31 02:57:54;;;;;;;4.18;2.03;;;;;;;20.07;63.67;100820.88;10297504;28;96910;-80
2023/07/31 03:02:58;;;;;;;2.88;2.10;;;;;;;20.12;63.84;100833.91;10295617;28;96811;-80
2023/07/31 03:08:02;;;;;;;;;;;;;;;20.30;63.94;100830.88;10296998;28;96765;-80
2023/07/31 03:13:07;;;;;;;2.60;1.77;;;;;;;20.24;63.32;100822.38;10313545;28;97899;-80
2023/07/31 03:18:11;;;;;;;2.75;1.77;;;;;;;19.98;64.04;100828.66;10336390;28;97183;-80
2023/07/31 03:23:14;;;;;;;4.00;2.00;;;;;;;19.57;64.92;100828.84;10336970;28;96799;-80
2023/07/31 03:28:19;;;;;;;3.17;2.10;;;;;;;19.28;65.71;100821.91;10336830;28;96682;-80
2023/07/31 03:33:23;;;;;;;4.90;2.10;;;;;;;19.53;65.30;100831.84;10337058;28;96602;-80
2023/07/31 03:38:27;;;;;;;3.65;2.40;;;;;;;19.42;65.60;100821.00;10336556;28;96873;-80
2023/07/31 03:43:33;;;;;;;5.57;2.00;;;;;;;19.29;66.04;100813.78;10335338;28;97835;-81
2023/07/31 03:48:36;;;;;;;5.20;2.17;;;;;;;19.46;65.28;100820.69;10335455;28;96869;-81
2023/07/31 03:53:40;;;;;;;4.38;2.08;;;;;;;19.41;65.35;100820.16;10336130;28;96708;-81
2023/07/31 03:58:44;;;;;;;4.50;2.28;;;;;;;19.34;65.66;100821.47;10296559;28;96685;-80
2023/07/31 04:03:47;;;;;;;;;;;;;;;19.32;66.56;100818.03;10295664;28;97158;-80
2023/07/31 04:08:50;;;;;;;3.33;2.15;;;;;;;19.21;65.68;100826.78;10294856;28;98118;-80
2023/07/31 04:13:55;;;;;;;3.53;2.30;;;;;;;19.28;65.42;100828.06;10294241;28;96750;-81
2023/07/31 04:18:58;;;;;;;4.70;1.92;;;;;;;19.19;65.81;100819.81;10294839;28;96731;-81
2023/07/31 04:24:01;;;;;;;4.30;2.17;;;;;;;19.01;66.39;100829.03;10253622;28;97349;-80
2023/07/31 04:29:06;;;;;;;3.55;2.50;;;;;;;19.22;65.97;100827.63;10253571;28;97240;-80
2023/07/31 04:34:11;;;;;;;3.80;1.92;;;;;;;19.11;66.18;100824.81;10252797;28;97897;-80
2023/07/31 04:39:14;;;;;;;5.50;2.27;;;;;;;19.21;66.07;100836.59;10280829;28;97218;-80
2023/07/31 04:44:18;;;;;;;4.30;2.13;;;;;;;18.99;66.66;100837.13;10293857;28;96689;-80
2023/07/31 04:49:22;;;;;;;3.13;1.77;;;;;;;19.08;66.39;100835.66;10293532;28;96585;-81
2023/07/31 04:54:25;;;;;;;3.88;2.05;;;;;;;19.03;66.45;100844.00;10300615;28;97529;-80
2023/07/31 04:59:31;;;;;;;3.95;2.17;;;;;;;18.78;67.34;100843.84;10293534;28;96755;-80
2023/07/31 05:04:35;;;;;;;3.25;1.98;;;;;;;18.93;66.91;100845.53;10292914;28;97431;-80
2023/07/31 05:09:40;;;;;;;5.78;2.20;;;;;;;18.77;67.18;100847.47;10294308;28;96793;-80
2023/07/31 05:14:46;;;;;;;5.03;2.50;;;;;;;18.94;66.58;100843.72;10293810;28;96659;-80
2023/07/31 05:19:50;;;;;;;4.22;2.20;;;;;;;18.98;66.49;100856.78;10293062;28;97794;-80
2023/07/31 05:24:55;;;;;;;3.90;2.05;;;;;;;19.05;66.16;100847.41;10291845;28;96629;-80
2023/07/31 05:30:00;;;;;;;;;;;;;;;18.62;67.51;100860.91;10299678;28;96676;-81
2023/07/31 05:35:04;;;;;;;5.03;2.47;;;;;;;18.89;66.64;100862.69;10299992;28;96776;-80
2023/07/31 05:40:08;;;;;;;3.60;2.30;;;;;;;19.05;66.25;100857.22;10299915;28;97125;-80
2023/07/31 05:45:13;;;;;;;4.78;2.50;;;;;;;18.56;67.53;100870.16;10299654;28;96881;-80
2023/07/31 05:50:17;;;;;;;3.05;2.08;;;;;;;18.86;66.70;100860.22;10299724;28;97282;-80
2023/07/31 05:55:20;;;;;;;5.45;2.30;;;;;;;19.28;65.84;100867.25;10298693;28;96798;-80
2023/07/31 06:00:25;;;;;;;3.28;2.17;;;;;;;19.16;66.54;100870.72;10299367;28;96632;-80
2023/07/31 06:05:29;;;;;;;4.25;2.45;;;;;;;18.95;67.10;100869.44;10335336;28;96881;-80
2023/07/31 06:10:34;;;;;;;3.40;2.22;;;;;;;19.27;66.39;100873.53;10339420;28;96759;-80
2023/07/31 06:15:41;;;;;;;3.08;2.03;;;;;;;19.27;66.54;100873.53;10338497;28;96725;-80
2023/07/31 06:20:44;;;;;;;4.82;2.20;;;;;;;19.35;66.68;100871.25;10338043;28;97471;-80
2023/07/31 06:25:48;;;;;;;4.90;2.42;;;;;;;19.18;67.14;100876.84;10338967;28;96753;-80
2023/07/31 06:30:52;;;;;;;4.15;2.28;;;;;;;19.58;66.60;100877.75;10339182;28;97458;-80
2023/07/31 06:35:56;;;;;;;3.65;2.20;;;;;;;19.61;66.47;100872.22;10338006;28;97739;-80
2023/07/31 06:40:59;;;;;;;4.30;2.13;;;;;;;19.78;66.02;100869.25;10338438;28;96680;-80
2023/07/31 06:46:08;;;;;;;4.13;2.17;;;;;;;19.89;65.99;100866.72;10338366;28;98141;-80
2023/07/31 06:51:13;;;;;;;3.85;2.50;;;;;;;19.86;66.01;100867.78;10339196;28;97615;-80
2023/07/31 06:56:16;;;;;;;3.70;2.10;;;;;;;19.83;66.28;100870.66;10307718;28;97875;-80
2023/07/31 07:01:20;;;;;;;3.20;2.10;;;;;;;19.79;66.56;100874.50;10296674;28;97015;-80
2023/07/31 07:06:24;;;;;;;3.92;2.45;;;;;;;19.75;66.75;100881.00;10295348;28;96735;-80
2023/07/31 07:11:28;;;;;;;3.63;2.47;;;;;;;20.06;65.56;100875.31;10297115;28;96835;-80
2023/07/31 07:16:33;;;;;;;3.20;2.35;;;;;;;19.97;65.58;100878.59;10295780;28;96877;-80
2023/07/31 07:21:36;;;;;;;3.90;2.10;;;;;;;19.95;65.66;100882.31;10296095;28;96729;-80
2023/07/31 07:26:39;;;;;;;3.75;2.13;;;;;;;20.39;64.37;100880.16;10296313;28;97284;-80
2023/07/31 07:31:45;;;;;;;6.27;2.60;;;;;;;20.68;63.32;100878.94;10295940;28;96761;-80
2023/07/31 07:36:48;;;;;;;3.13;2.08;;;;;;;20.66;63.27;100880.88;10295912;28;96893;-80
2023/07/31 07:41:53;;;;;;;4.53;2.20;;;;;;;21.14;62.06;100882.69;10296211;28;96819;-80
2023/07/31 07:46:59;;;;;;;;;;;;;;;21.11;61.18;100884.72;10296116;28;97631;-80
2023/07/31 07:52:04;;;;;;;2.58;1.98;;;;;;;21.11;62.07;100885.59;10295203;28;97265;-80
2023/07/31 07:57:08;;;;;;;2.90;1.83;;;;;;;21.32;61.66;100886.72;10292815;28;96844;-80
2023/07/31 08:02:15;;;;;;;3.90;2.25;;;;;;;21.32;61.23;100888.53;10313272;28;96726;-80
2023/07/31 08:07:20;;;;;;;3.47;2.03;;;;;;;21.54;60.96;100877.94;10335993;28;97097;-81
2023/07/31 08:12:23;;;;;;;5.15;2.53;;;;;;;21.66;60.73;100885.03;10335999;28;96739;-80
2023/07/31 08:17:28;;;;;;;3.38;2.17;;;;;;;22.17;59.68;100883.81;10334368;28;97767;-80
2023/07/31 08:22:33;;;;;;;3.95;2.50;;;;;;;22.08;59.69;100881.81;10335250;28;97301;-81
2023/07/31 08:27:38;;;;;;;3.33;2.15;;;;;;;22.28;59.75;100888.34;10335352;28;96807;-81
2023/07/31 08:32:42;;;;;;;3.90;2.27;;;;;;;22.70;58.82;100886.78;10336050;28;96737;-80
2023/07/31 08:37:45;;;;;;;4.57;2.30;;;;;;;22.83;58.47;100884.84;10334285;28;97416;-81
2023/07/31 08:42:51;;;;;;;2.67;1.90;;;;;;;23.09;58.36;100876.41;10335047;28;96702;-81
2023/07/31 08:47:57;;;;;;;3.28;2.22;;;;;;;23.41;57.84;100871.06;10333460;28;96584;-80
2023/07/31 08:53:00;;;;;;;3.63;2.03;;;;;;;23.46;58.05;100868.84;10317754;28;96981;-80
2023/07/31 08:58:05;;;;;;;4.17;2.00;;;;;;;23.79;57.34;100866.03;10293965;28;96593;-80
2023/07/31 09:03:15;;;;;;;4.72;2.30;;;;;;;23.82;57.97;100854.19;10297540;28;96687;-80
2023/07/31 09:08:21;;;;;;;3.53;2.05;;;;;;;24.13;57.07;100853.28;10301006;28;96721;-80
2023/07/31 09:13:25;;;;;;;3.15;2.13;;;;;;;24.56;56.41;100841.38;10300349;28;96615;-81
2023/07/31 09:18:30;;;;;;;3.58;2.10;;;;;;;24.71;56.02;100837.31;10299271;28;96971;-80
2023/07/31 09:23:44;;;;;;;4.43;2.03;;;;;;;24.80;55.61;100833.81;10300861;28;96749;-80
2023/07/31 09:28:48;;;;;;;2.85;2.17;;;;;;;25.14;55.34;100823.56;10300004;28;96954;-80
2023/07/31 09:33:58;;;;;;;3.20;2.33;;;;;;;25.47;54.95;100835.78;10299259;28;96794;-80
2023/07/31 09:39:05;;;;;;;4.00;2.38;;;;;;;25.40;55.16;100815.78;10298679;28;96674;-79
2023/07/31 09:44:09;;;;;;;4.68;2.50;;;;;;;25.31;55.16;100817.47;10300205;28;97473;-79
2023/07/31 09:49:15;;;;;;;4.10;2.60;;;;;;;25.64;54.68;100827.00;10298906;28;96927;-80
2023/07/31 09:54:19;;;;;;;3.35;2.13;;;;;;;25.83;54.43;100811.69;10298934;28;96674;-80
2023/07/31 09:59:23;;;;;;;3.67;2.00;;;;;;;25.79;54.21;100826.47;10302000;28;97126;-80
2023/07/31 10:04:30;;;;;;;6.65;2.70;;;;;;;26.02;53.64;100828.84;10339784;28;97066;-80
2023/07/31 10:09:35;;;;;;;3.25;2.17;;;;;;;26.14;53.43;100822.28;10339791;28;96737;-80
2023/07/31 10:14:40;;;;;;;3.58;2.25;;;;;;;26.20;53.46;100827.94;10340066;28;97132;-80
2023/07/31 10:19:46;;;;;;;3.65;2.50;;;;;;;26.24;52.99;100823.09;10338118;28;96775;-80
2023/07/31 10:24:51;;;;;;;3.55;1.90;;;;;;;26.37;52.63;100812.88;10338841;28;96709;-80
2023/07/31 10:29:56;;;;;;;4.88;2.67;;;;;;;26.41;52.59;100809.72;10338322;28;97118;-80
2023/07/31 10:35:03;;;;;;;5.35;2.28;;;;;;;26.69;52.19;100806.03;10338180;28;96694;-80
2023/07/31 10:40:10;;;;;;;3.50;1.90;;;;;;;26.94;51.40;100808.00;10338729;28;96961;-80
2023/07/31 10:45:14;;;;;;;3.88;2.55;;;;;;;27.08;51.68;100806.69;10338185;28;96759;-80
2023/07/31 10:50:20;;;;;;;4.22;2.47;;;;;;;27.04;51.34;100805.31;10335370;28;96806;-80
2023/07/31 10:55:29;;;;;;;3.72;2.45;;;;;;;27.07;51.92;100813.09;10279442;28;96746;-80
2023/07/31 11:00:33;;;;;;;5.03;2.90;;;;;;;27.14;51.24;100811.50;10256504;28;97325;-80
2023/07/31 11:05:53;;;;;;;4.53;2.55;;;;;;;27.32;49.10;100814.22;10257144;28;97240;-80
2023/07/31 11:11:08;;;;;;;4.00;2.53;;;;;;;27.55;49.03;100808.16;10322102;28;97306;-80
2023/07/31 11:16:14;;;;;;;3.28;2.13;;;;;;;27.77;49.26;100817.69;10337283;28;97055;-80
2023/07/31 11:21:21;;;;;;;4.35;2.53;;;;;;;27.93;48.58;100820.50;10336295;28;96647;-80
2023/07/31 11:26:25;;;;;;;4.25;2.47;;;;;;;28.01;48.56;100828.72;10336000;28;96736;-80
2023/07/31 11:31:30;;;;;;;3.30;2.10;;;;;;;28.27;47.96;100816.03;10337501;28;96714;-80
2023/07/31 11:36:41;;;;;;;5.60;2.88;;;;;;;28.33;47.68;100807.28;10297868;28;96706;-81
2023/07/31 11:41:45;;;;;;;3.90;2.53;;;;;;;28.57;47.12;100812.81;10296365;28;96889;-80
2023/07/31 11:46:48;;;;;;;3.60;2.30;;;;;;;28.60;47.18;100808.94;10301419;22;97635;-80
2023/07/31 11:51:53;;;;;;;4.18;2.65;;;;;;;28.63;46.62;100803.19;10295342;28;97073;-80
2023/07/31 11:56:57;;;;;;;2.72;2.20;;;;;;;28.81;46.25;100804.78;10296022;28;96830;-80
2023/07/31 12:02:02;;;;;;;4.32;2.60;;;;;;;28.97;45.54;100795.91;10328795;28;96682;-80
2023/07/31 12:07:07;;;;;;;3.45;2.13;;;;;;;28.98;45.53;100784.06;10335843;28;96743;-80
2023/07/31 12:12:22;;;;;;;3.78;2.20;;;;;;;28.99;44.22;100780.31;10335498;28;96733;-80
2023/07/31 12:17:26;;;;;;;3.50;2.50;;;;;;;29.13;44.33;100774.25;10335581;28;96977;-80
2023/07/31 12:22:32;;;;;;;3.60;2.38;;;;;;;29.18;42.75;100780.88;10335566;28;96691;-80
2023/07/31 12:27:37;;;;;;;3.25;2.17;;;;;;;29.19;43.13;100782.56;10335324;28;96740;-80
2023/07/31 12:32:43;;;;;;;3.90;2.40;;;;;;;29.44;42.82;100769.88;10334828;28;96714;-81
2023/07/31 12:37:50;;;;;;;3.95;2.40;;;;;;;29.39;41.85;100774.97;10339742;28;96822;-80
2023/07/31 12:42:54;;;;;;;2.97;2.15;;;;;;;29.63;42.19;100779.56;10342656;28;96739;-81
2023/07/31 12:47:58;;;;;;;6.72;2.75;;;;;;;29.81;42.10;100781.13;10342895;28;96920;-81
2023/07/31 12:53:06;;;;;;;4.38;2.20;;;;;;;29.95;40.90;100774.16;10342397;28;97457;-80
2023/07/31 12:58:11;;;;;;;4.72;2.55;;;;;;;29.79;41.48;100768.72;10342275;28;96761;-79
2023/07/31 13:03:16;;;;;;;3.85;2.67;;;;;;;30.09;40.61;100760.72;10340864;28;96795;-79
2023/07/31 13:08:24;;;;;;;3.03;2.22;;;;;;;30.19;39.99;100750.53;10341663;28;97087;-80
2023/07/31 13:13:30;;;;;;;4.03;1.85;;;;;;;30.07;39.00;100762.72;10341521;28;96782;-80
2023/07/31 13:18:35;;;;;;;3.45;2.10;;;;;;;30.13;38.31;100744.94;10341526;28;96712;-79
2023/07/31 13:23:43;;;;;;;4.88;2.28;;;;;;;30.30;37.44;100749.28;10341195;28;97272;-79
2023/07/31 13:28:48;;;;;;;3.17;1.90;;;;;;;30.50;37.27;100741.59;10341317;28;96834;-80
2023/07/31 13:33:51;;;;;;;2.92;2.03;;;;;;;30.64;36.49;100744.41;10325376;28;96802;-80
2023/07/31 13:38:56;;;;;;;;;;;;;;;30.70;35.67;100738.28;10300670;28;97295;-80
2023/07/31 13:43:59;;;;;;;2.58;1.80;;;;;;;30.74;36.06;100731.47;10333776;28;96996;-80
2023/07/31 13:49:02;;;;;;;;;;;;;;;30.69;35.32;100728.44;10339708;28;97715;-80
2023/07/31 13:54:07;;;;;;;3.40;2.10;;;;;;;30.73;35.69;100724.34;10324520;28;96681;-79
2023/07/31 13:59:11;;;;;;;3.80;1.60;;;;;;;30.83;35.47;100724.97;10295626;28;96778;-80
2023/07/31 14:04:14;;;;;;;2.30;1.67;;;;;;;30.91;35.12;100724.06;10339863;28;96790;-80
2023/07/31 14:09:19;;;;;;;2.10;1.60;;;;;;;30.89;35.74;100724.25;10340273;28;97060;-81
2023/07/31 14:14:23;;;;;;;2.45;1.70;;;;;;;30.82;35.40;100723.25;10339533;28;96799;-80
2023/07/31 14:19:26;;;;;;;3.00;1.45;;;;;;;30.89;34.83;100712.50;10339332;28;96895;-81
2023/07/31 14:24:31;;;;;;;2.30;1.27;;;;;;;30.77;33.90;100717.53;10339246;28;96719;-81
2023/07/31 14:29:34;;;;;;;2.03;1.30;;;;;;;30.94;35.03;100713.66;10339932;28;96941;-80
2023/07/31 14:34:37;;;;;;;;;;;;;;;30.82;34.09;100712.41;10317028;28;96857;-80
2023/07/31 14:39:43;;;;;;;2.67;1.50;;;;;;;30.83;34.27;100716.81;10297594;28;96905;-80
2023/07/31 14:44:46;;;;;;;1.92;1.00;;;;;;;30.83;34.60;100714.09;10296265;28;96728;-80
2023/07/31 14:49:50;;;;;;;2.08;0.93;;;;;;;30.96;34.39;100716.22;10312853;28;96705;-80
2023/07/31 14:54:55;;;;;;;;;;;;;;;30.77;32.59;100705.78;10339030;28;97825;-80
2023/07/31 14:59:59;;;;;;;1.55;1.00;;;;;;;30.84;33.28;100709.50;10337206;28;97009;-80
2023/07/31 15:05:02;;;;;;;;;;;;;;;30.78;33.82;100705.66;10338424;28;96570;-80
2023/07/31 15:10:08;;;;;;;2.50;1.20;;;;;;;30.75;34.01;100697.81;10338152;28;96692;-80
2023/07/31 15:15:11;;;;;;;1.58;0.93;;;;;;;31.02;34.03;100705.47;10337571;28;96553;-81
2023/07/31 15:20:14;;;;;;;;;;;;;;;30.98;33.47;100708.72;10338731;28;97045;-80
2023/07/31 15:25:19;;;;;;;2.13;0.80;;;;;;;30.71;34.58;100698.38;10336735;28;96774;-80
2023/07/31 15:30:24;;;;;;;1.90;1.27;;;;;;;30.59;35.22;100706.06;10337493;28;96967;-80
2023/07/31 15:35:27;;;;;;;1.23;0.90;;;;;;;30.57;35.65;100701.81;10307322;28;96681;-80
2023/07/31 15:40:31;;;;;;;;;;;;;;;30.41;35.99;100697.31;10309146;28;96836;-81
2023/07/31 15:45:35;;;;;;;2.25;1.13;;;;;;;30.59;36.47;100691.63;10337008;28;96924;-80
2023/07/31 15:50:40;;;;;;;1.80;1.20;;;;;;;30.56;36.27;100679.22;10336465;28;96838;-80
2023/07/31 15:55:45;;;;;;;1.95;1.35;;;;;;;30.34;36.86;100676.47;10336948;28;97271;-80
2023/07/31 16:00:48;;;;;;;2.13;1.45;;;;;;;30.44;36.69;100675.22;10335553;28;96758;-80
2023/07/31 16:05:51;;;;;;;;;;;;;;;30.29;37.30;100682.44;10336689;28;97533;-80
2023/07/31 16:10:56;;;;;;;1.83;1.33;;;;;;;30.10;37.73;100678.28;10336667;28;97159;-80
2023/07/31 16:15:59;;;;;;;1.73;1.20;;;;;;;29.88;38.32;100680.84;10334944;28;96704;-80
2023/07/31 16:21:03;;;;;;;2.63;1.10;;;;;;;29.79;38.35;100682.75;10335407;28;96703;-80
2023/07/31 16:26:09;;;;;;;1.67;1.17;;;;;;;29.64;38.39;100689.06;10334814;28;97564;-80
2023/07/31 16:31:13;;;;;;;1.60;1.35;;;;;;;29.41;38.53;100680.75;10335130;28;96698;-81
2023/07/31 16:36:18;;;;;;;1.58;1.23;;;;;;;29.25;38.66;100685.31;10299718;28;97270;-80
2023/07/31 16:41:23;;;;;;;2.30;1.17;;;;;;;29.15;39.10;100680.94;10294233;28;96725;-80
2023/07/31 16:46:27;;;;;;;2.33;1.20;;;;;;;29.04;39.86;100680.38;10293109;28;96853;-80
2023/07/31 16:51:32;;;;;;;2.03;1.10;;;;;;;28.95;40.56;100675.97;10332176;28;96952;-80
2023/07/31 16:56:38;;;;;;;2.72;1.38;;;;;;;28.86;41.30;100677.78;10280860;28;96654;-80
2023/07/31 17:01:46;;;;;;;1.90;1.20;;;;;;;28.68;42.24;100687.94;10248991;28;96918;-80
2023/07/31 17:06:50;;;;;;;1.70;1.20;;;;;;;28.61;42.77;100667.94;10300977;28;96934;-80
2023/07/31 17:11:56;;;;;;;1.45;1.20;;;;;;;28.46;43.49;100680.44;10334537;28;97235;-80
2023/07/31 17:17:01;;;;;;;1.48;1.02;;;;;;;28.40;43.94;100683.78;10333160;28;96947;-80
2023/07/31 17:22:06;;;;;;;1.80;1.25;;;;;;;28.36;43.85;100685.13;10334341;28;96857;-80
2023/07/31 17:27:12;;;;;;;1.75;1.23;;;;;;;28.13;44.72;100684.81;10341699;28;96789;-80
2023/07/31 17:32:16;;;;;;;1.27;0.90;;;;;;;28.10;44.70;100693.28;10338534;28;97029;-80
2023/07/31 17:37:25;;;;;;;2.40;0.90;;;;;;;28.06;44.85;100689.19;10299817;28;97399;-80
2023/07/31 17:42:30;;;;;;;2.00;1.10;;;;;;;28.03;45.32;100696.81;10337060;28;97056;-80
2023/07/31 17:47:34;;;;;;;1.40;1.00;;;;;;;27.93;46.05;100686.09;10339932;28;96625;-80
2023/07/31 17:52:39;;;;;;;1.83;1.02;;;;;;;27.81;46.34;100689.22;10341447;28;96701;-79
2023/07/31 17:57:45;;;;;;;1.67;1.05;;;;;;;27.79;46.24;100686.69;10340160;28;96711;-79
2023/07/31 18:02:49;;;;;;;1.60;0.70;;;;;;;27.68;46.87;100688.81;10340144;28;97241;-79
2023/07/31 18:07:55;;;;;;;1.35;0.90;;;;;;;27.48;47.79;100688.13;10339124;28;96682;-79
2023/07/31 18:13:00;;;;;;;1.38;0.90;;;;;;;27.42;48.48;100687.91;10339861;28;96770;-79
2023/07/31 18:18:04;;;;;;;1.05;0.95;;;;;;;27.22;49.16;100691.78;10338641;28;96781;-79
2023/07/31 18:23:08;;;;;;;1.30;0.80;;;;;;;27.24;48.92;100695.19;10339181;28;97202;-80
2023/07/31 18:28:15;;;;;;;1.15;0.75;;;;;;;27.14;49.53;100692.59;10339388;28;97397;-79
2023/07/31 18:33:18;;;;;;;1.73;0.60;;;;;;;27.09;49.65;100685.94;10327747;28;96714;-80
2023/07/31 18:38:22;;;;;;;1.23;0.90;;;;;;;26.93;50.99;100702.81;10298225;28;96667;-80
2023/07/31 18:43:27;;;;;;;1.85;0.88;;;;;;;26.77;51.59;100708.06;10298233;28;96603;-80
2023/07/31 18:48:30;;;;;;;1.20;0.73;;;;;;;26.77;51.63;100708.91;10318466;28;97508;-79
2023/07/31 18:53:35;;;;;;;1.33;0.60;;;;;;;26.62;52.48;100714.97;10338777;28;97041;-80
2023/07/31 18:58:39;;;;;;;1.42;1.02;;;;;;;26.49;53.03;100720.72;10337324;28;96788;-80
2023/07/31 19:03:43;;;;;;;1.67;0.77;;;;;;;26.46;52.79;100704.84;10337517;28;97333;-79
2023/07/31 19:08:47;;;;;;;1.73;0.80;;;;;;;26.27;53.25;100713.00;10338073;28;96819;-79
2023/07/31 19:13:52;;;;;;;1.35;0.73;;;;;;;26.09;54.23;100725.56;10338210;28;96871;-79
2023/07/31 19:18:56;;;;;;;1.40;0.80;;;;;;;26.08;54.14;100733.81;10337684;28;96584;-79
2023/07/31 19:24:04;;;;;;;1.02;0.73;;;;;;;25.92;54.71;100738.00;10337554;28;96769;-79
2023/07/31 19:29:12;;;;;;;0.60;0.50;;;;;;;25.89;55.08;100742.84;10337187;28;96765;-79
2023/07/31 19:34:15;;;;;;;0.63;0.50;;;;;;;25.70;55.99;100757.22;10319404;28;97860;-79
2023/07/31 19:39:18;;;;;;;1.00;0.60;;;;;;;25.56;56.89;100762.16;10315572;28;97113;-80
2023/07/31 19:44:23;;;;;;;1.63;0.63;;;;;;;25.50;57.03;100762.75;10337050;28;96950;-81
2023/07/31 19:49:27;;;;;;;0.52;0.47;;;;;;;25.49;57.01;100761.03;10334410;28;97085;-79
2023/07/31 19:54:30;;;;;;;1.45;0.65;;;;;;;25.28;57.93;100771.97;10331086;28;96950;-79
2023/07/31 19:59:35;;;;;;;0.97;0.60;;;;;;;25.15;58.50;100778.63;10336416;28;97544;-79
2023/07/31 20:04:39;;;;;;;0.68;0.55;;;;;;;25.06;58.75;100772.25;10336155;28;97531;-79
2023/07/31 20:09:44;;;;;;;0.82;0.52;;;;;;;25.12;58.44;100790.50;10336442;28;96965;-79
2023/07/31 20:14:49;;;;;;;0.53;0.40;;;;;;;25.01;58.94;100796.03;10335545;28;96728;-79
2023/07/31 20:19:53;;;;;;;0.55;0.50;;;;;;;24.81;59.61;100795.13;10335598;28;97552;-79
2023/07/31 20:24:56;;;;;;;0.67;0.60;;;;;;;24.74;60.11;100796.66;10336112;28;96817;-79
2023/07/31 20:30:01;;;;;;;1.00;0.43;;;;;;;24.84;59.57;100810.97;10335110;28;96722;-79
2023/07/31 20:35:05;;;;;;;1.15;0.60;;;;;;;24.78;59.92;100819.63;10309426;28;96862;-79
2023/07/31 20:40:09;;;;;;;0.90;0.50;;;;;;;24.72;60.22;100825.53;10293276;28;96634;-78
2023/07/31 20:45:14;;;;;;;0.68;0.50;;;;;;;24.59;60.84;100838.41;10295981;28;96871;-79
2023/07/31 20:50:17;;;;;;;1.13;0.60;;;;;;;24.59;61.06;100838.41;10334404;28;96731;-79
2023/07/31 20:55:20;;;;;;;1.30;0.50;;;;;;;24.51;61.25;100842.75;10334689;28;96696;-79
2023/07/31 21:00:25;;;;;;;2.13;0.73;;;;;;;24.60;60.77;100834.72;10341155;28;96962;-79
2023/07/31 21:05:28;;;;;;;0.40;0.40;;;;;;;24.61;61.00;100839.13;10341671;28;96991;-79
2023/07/31 21:10:33;;;;;;;0.90;0.50;;;;;;;24.54;61.29;100846.03;10342450;28;96736;-79
2023/07/31 21:15:42;;;;;;;0.77;0.50;;;;;;;24.31;62.27;100839.13;10342149;28;96573;-79
2023/07/31 21:20:48;;;;;;;0.90;0.43;;;;;;;24.45;61.97;100848.66;10340979;28;96795;-79
2023/07/31 21:25:52;;;;;;;1.48;0.52;;;;;;;24.35;62.36;100847.78;10340963;28;96676;-79
2023/07/31 21:30:58;;;;;;;0.55;0.50;;;;;;;24.09;63.46;100850.00;10339890;28;96644;-78
2023/07/31 21:36:01;;;;;;;0.52;0.40;;;;;;;23.95;63.85;100844.94;10308297;28;96822;-79
2023/07/31 21:41:04;;;;;;;0.63;0.50;;;;;;;;;;10340881;28;97051;-78
2023/07/31 21:46:09;;;;;;;0.40;0.40;;;;;;;23.99;63.83;100849.09;10340107;28;96560;-79
2023/07/31 21:51:13;;;;;;;0.50;0.50;;;;;;;24.06;63.60;100846.72;10340406;28;96751;-78
2023/07/31 21:56:17;;;;;;;1.23;0.60;;;;;;;24.06;63.71;100857.47;10340167;28;97016;-79
2023/07/31 22:01:21;;;;;;;1.10;0.77;;;;;;;24.20;63.27;100859.84;10339758;28;96720;-79
2023/07/31 22:06:25;;;;;;;0.52;0.45;;;;;;;23.92;64.76;100866.72;10340729;28;96714;-79
2023/07/31 22:11:28;;;;;;;0.33;0.23;;;;;;;23.85;64.91;100870.91;10338980;28;96824;-78
2023/07/31 22:16:34;;;;;;;1.13;0.50;;;;;;;23.98;64.32;100868.03;10339415;28;96706;-79
2023/07/31 22:21:38;;;;;;;1.00;0.55;;;;;;;23.89;64.62;100866.13;10338033;28;97951;-79
2023/07/31 22:26:42;;;;;;;0.40;0.30;;;;;;;23.91;64.63;100870.38;10339110;28;96827;-79
2023/07/31 22:31:47;;;;;;;1.00;0.60;;;;;;;23.61;66.18;100878.34;10339084;28;97208;-79
2023/07/31 22:36:50;;;;;;;1.30;0.43;;;;;;;23.69;65.62;100865.13;10296263;28;96936;-78
2023/07/31 22:41:53;;;;;;;0.50;0.50;;;;;;;23.70;65.87;100882.97;10297362;28;97450;-79
2023/07/31 22:46:58;;;;;;;1.07;0.57;;;;;;;23.79;65.38;100870.59;10322064;28;96791;-79
2023/07/31 22:52:02;;;;;;;0.45;0.32;;;;;;;23.92;64.98;100882.00;10338690;28;96837;-79
2023/07/31 22:57:06;;;;;;;2.10;0.70;;;;;;;23.84;65.56;100893.38;10281631;28;96779;-79
2023/07/31 23:02:13;;;;;;;1.77;1.40;;;;;;;23.93;65.26;100899.81;10276682;28;96828;-79
2023/07/31 23:07:16;;;;;;;3.67;1.77;;;;;;;24.03;64.82;100887.31;10337982;28;96938;-79
2023/07/31 23:12:19;;;;;;;1.23;0.93;;;;;;;24.04;64.98;100886.31;10337028;28;96716;-79
2023/07/31 23:17:24;;;;;;;2.20;1.60;;;;;;;23.98;65.40;100882.31;10337356;28;96779;-79
2023/07/31 23:22:28;;;;;;;1.85;1.50;;;;;;;23.98;65.36;100870.72;10335814;28;96760;-79
2023/07/31 23:27:31;;;;;;;3.63;2.97;;;;;;;24.02;65.28;100867.66;10337376;28;97261;-79